createdAt,value
2022-08-09T00:00:23.088Z,17.10
2022-08-09T00:02:51.903Z,17.10
2022-08-09T00:06:17.500Z,17.00
2022-08-09T00:08:31.579Z,17.00
2022-08-09T00:11:00.239Z,17.00
2022-08-09T00:13:31.674Z,16.90
2022-08-09T00:16:02.508Z,16.90
2022-08-09T00:18:34.725Z,16.80
2022-08-09T00:21:08.380Z,16.80
2022-08-09T00:23:57.103Z,16.80
2022-08-09T00:26:29.890Z,16.80
2022-08-09T00:29:02.546Z,16.70
2022-08-09T00:31:59.764Z,16.70
2022-08-09T00:34:20.327Z,16.70
2022-08-09T00:36:50.167Z,16.70
2022-08-09T00:40:09.115Z,16.60
2022-08-09T00:44:16.261Z,16.60
2022-08-09T00:44:56.990Z,16.60
2022-08-09T00:47:25.540Z,16.60
2022-08-09T00:49:55.236Z,16.50
2022-08-09T00:52:30.676Z,16.50
2022-08-09T00:55:00.929Z,16.50
2022-08-09T00:57:33.712Z,16.50
2022-08-09T01:00:21.296Z,16.40
2022-08-09T01:02:52.871Z,16.40
2022-08-09T01:05:51.866Z,16.40
2022-08-09T01:08:27.224Z,16.30
2022-08-09T01:11:08.657Z,16.30
2022-08-09T01:13:59.258Z,16.30
2022-08-09T01:16:31.900Z,16.20
2022-08-09T01:19:04.443Z,16.20
2022-08-09T01:21:51.381Z,16.20
2022-08-09T01:24:36.206Z,16.20
2022-08-09T01:27:11.411Z,16.20
2022-08-09T01:29:55.565Z,16.10
2022-08-09T01:32:34.221Z,16.10
2022-08-09T01:35:06.829Z,16.10
2022-08-09T01:38:09.362Z,16.00
2022-08-09T01:40:39.221Z,16.00
2022-08-09T01:43:11.121Z,15.90
2022-08-09T01:45:44.841Z,15.90
2022-08-09T01:48:18.278Z,15.90
2022-08-09T01:50:55.004Z,15.90
2022-08-09T01:53:29.070Z,15.90
2022-08-09T01:55:59.457Z,15.90
2022-08-09T01:58:30.957Z,15.80
2022-08-09T02:01:00.978Z,15.80
2022-08-09T02:03:31.406Z,15.80
2022-08-09T02:06:03.754Z,15.70
2022-08-09T02:08:57.614Z,15.70
2022-08-09T02:11:42.507Z,15.70
2022-08-09T02:14:25.272Z,15.70
2022-08-09T02:17:09.015Z,15.60
2022-08-09T02:19:46.052Z,15.60
2022-08-09T02:22:31.651Z,15.60
2022-08-09T02:25:09.058Z,15.60
2022-08-09T02:27:57.876Z,15.60
2022-08-09T02:30:30.565Z,15.50
2022-08-09T02:33:00.473Z,15.50
2022-08-09T02:36:02.134Z,15.40
2022-08-09T02:38:28.743Z,15.40
2022-08-09T02:41:03.073Z,15.40
2022-08-09T02:43:42.504Z,15.40
2022-08-09T02:46:28.514Z,15.30
2022-08-09T02:49:01.453Z,15.30
2022-08-09T02:51:40.200Z,15.30
2022-08-09T02:54:12.451Z,15.30
2022-08-09T02:56:51.024Z,15.30
2022-08-09T02:59:26.131Z,15.30
2022-08-09T03:02:12.230Z,15.20
2022-08-09T03:04:50.701Z,15.20
2022-08-09T03:07:20.035Z,15.20
2022-08-09T03:09:56.381Z,15.20
2022-08-09T03:12:25.777Z,15.20
2022-08-09T03:14:54.893Z,15.10
2022-08-09T03:17:27.143Z,15.10
2022-08-09T03:20:05.024Z,15.10
2022-08-09T03:22:41.828Z,15.10
2022-08-09T03:25:26.955Z,15.10
2022-08-09T03:28:03.679Z,15.00
2022-08-09T03:30:34.233Z,15.00
2022-08-09T03:33:17.392Z,15.00
2022-08-09T03:36:13.003Z,15.00
2022-08-09T03:38:41.627Z,14.90
2022-08-09T03:41:15.630Z,14.90
2022-08-09T03:44:04.036Z,14.90
2022-08-09T03:46:33.870Z,14.90
2022-08-09T03:49:09.055Z,14.90
2022-08-09T03:51:56.440Z,14.90
2022-08-09T03:54:30.914Z,14.90
2022-08-09T03:57:04.055Z,14.90
2022-08-09T03:59:53.178Z,14.80
2022-08-09T04:02:26.901Z,14.80
2022-08-09T04:04:58.908Z,14.80
2022-08-09T04:07:52.165Z,14.80
2022-08-09T04:10:18.434Z,14.80
2022-08-09T04:12:51.550Z,14.80
2022-08-09T04:15:38.996Z,14.70
2022-08-09T04:18:16.453Z,14.70
2022-08-09T04:20:48.041Z,14.70
2022-08-09T04:23:17.252Z,14.70
2022-08-09T04:25:52.184Z,14.70
2022-08-09T04:28:33.569Z,14.70
2022-08-09T04:31:09.202Z,14.70
2022-08-09T04:33:47.578Z,14.70
2022-08-09T04:36:24.843Z,14.70
2022-08-09T04:38:53.717Z,14.70
2022-08-09T04:41:23.564Z,14.60
2022-08-09T04:44:07.349Z,14.60
2022-08-09T04:46:58.314Z,14.60
2022-08-09T04:49:40.385Z,14.60
2022-08-09T04:52:18.191Z,14.60
2022-08-09T04:54:48.125Z,14.70
2022-08-09T04:57:16.259Z,14.60
2022-08-09T04:59:52.933Z,14.70
2022-08-09T05:02:21.003Z,14.70
2022-08-09T05:04:55.019Z,14.70
2022-08-09T05:07:27.685Z,14.70
2022-08-09T05:09:57.762Z,14.70
2022-08-09T05:12:29.917Z,14.70
2022-08-09T05:14:59.115Z,14.70
2022-08-09T05:18:50.419Z,14.70
2022-08-09T05:20:15.352Z,14.80
2022-08-09T05:23:54.815Z,14.80
2022-08-09T05:25:33.033Z,14.80
2022-08-09T05:28:03.487Z,14.90
2022-08-09T05:30:31.673Z,14.90
2022-08-09T05:33:01.877Z,14.90
2022-08-09T05:35:30.399Z,15.00
2022-08-09T05:38:08.444Z,15.00
2022-08-09T05:40:36.692Z,15.00
2022-08-09T05:43:05.241Z,15.00
2022-08-09T05:45:53.000Z,15.10
2022-08-09T05:48:21.422Z,15.10
2022-08-09T05:51:42.860Z,15.20
2022-08-09T05:53:56.890Z,15.20
2022-08-09T05:56:28.281Z,15.30
2022-08-09T05:58:59.083Z,15.40
2022-08-09T06:01:34.124Z,15.60
2022-08-09T06:04:12.154Z,15.80
2022-08-09T06:06:46.784Z,16.00
2022-08-09T06:09:41.084Z,16.20
2022-08-09T06:12:08.930Z,16.50
2022-08-09T06:14:37.289Z,16.80
2022-08-09T06:17:09.842Z,17.10
2022-08-09T06:19:38.526Z,17.30
2022-08-09T06:22:14.893Z,17.60
2022-08-09T06:24:45.108Z,17.80
2022-08-09T06:27:15.842Z,18.10
2022-08-09T06:29:48.379Z,18.40
2022-08-09T06:32:58.956Z,18.60
2022-08-09T06:35:15.400Z,19.00
2022-08-09T06:37:53.396Z,19.30
2022-08-09T06:40:33.642Z,19.60
2022-08-09T06:43:02.238Z,19.90
2022-08-09T06:46:08.031Z,20.20
2022-08-09T06:48:30.368Z,20.40
2022-08-09T06:51:00.057Z,20.60
2022-08-09T06:53:33.181Z,20.90
2022-08-09T06:56:09.410Z,21.00
2022-08-09T07:00:46.372Z,21.20
2022-08-09T07:01:27.676Z,21.40
2022-08-09T07:04:20.071Z,21.50
2022-08-09T07:06:53.407Z,21.70
2022-08-09T07:09:56.158Z,21.80
2022-08-09T07:12:18.660Z,21.90
2022-08-09T07:14:51.343Z,22.10
2022-08-09T07:17:20.157Z,22.20
2022-08-09T07:19:55.106Z,22.40
2022-08-09T07:22:27.386Z,22.50
2022-08-09T07:25:05.550Z,22.70
2022-08-09T07:27:43.066Z,22.90
2022-08-09T07:30:24.673Z,23.00
2022-08-09T07:32:54.742Z,23.20
2022-08-09T07:35:23.395Z,23.40
2022-08-09T07:37:54.152Z,23.40
2022-08-09T07:40:37.302Z,23.50
2022-08-09T07:43:17.809Z,23.70
2022-08-09T07:45:45.894Z,23.70
2022-08-09T07:48:25.502Z,23.90
2022-08-09T07:51:09.620Z,23.90
2022-08-09T07:54:07.335Z,24.10
2022-08-09T07:56:37.013Z,24.20
2022-08-09T07:59:16.128Z,24.30
2022-08-09T08:01:56.044Z,24.40
2022-08-09T08:04:25.446Z,24.50
2022-08-09T08:07:27.210Z,24.60
2022-08-09T08:09:55.230Z,24.70
2022-08-09T08:12:42.903Z,24.60
2022-08-09T08:15:16.700Z,24.70
2022-08-09T08:17:54.547Z,24.60
2022-08-09T08:20:30.146Z,24.60
2022-08-09T08:23:03.763Z,24.60
2022-08-09T08:25:46.213Z,24.60
2022-08-09T08:28:18.323Z,24.60
2022-08-09T08:30:55.921Z,24.70
2022-08-09T08:33:24.810Z,24.70
2022-08-09T08:36:00.393Z,24.70
2022-08-09T08:38:31.779Z,24.70
2022-08-09T08:41:01.754Z,24.70
2022-08-09T08:43:33.969Z,24.80
2022-08-09T08:46:32.221Z,24.80
2022-08-09T08:48:58.206Z,24.90
2022-08-09T08:51:41.479Z,24.90
2022-08-09T08:54:20.549Z,24.90
2022-08-09T08:56:58.644Z,24.90
2022-08-09T08:59:28.075Z,24.90
2022-08-09T09:02:31.316Z,24.90
2022-08-09T09:05:06.153Z,25.00
2022-08-09T09:07:42.669Z,25.00
2022-08-09T09:10:13.738Z,24.90
2022-08-09T09:12:44.585Z,24.90
2022-08-09T09:15:27.909Z,25.00
2022-08-09T09:17:58.374Z,25.00
2022-08-09T09:20:27.699Z,25.00
2022-08-09T09:23:01.814Z,25.00
2022-08-09T09:26:01.714Z,25.10
2022-08-09T09:29:03.109Z,25.10
2022-08-09T09:31:17.560Z,25.10
2022-08-09T09:34:23.251Z,25.10
2022-08-09T09:36:54.698Z,25.10
2022-08-09T09:39:25.737Z,25.20
2022-08-09T09:42:25.538Z,25.20
2022-08-09T09:44:59.005Z,25.20
2022-08-09T09:47:28.735Z,25.30
2022-08-09T09:50:13.671Z,25.20
2022-08-09T09:52:54.023Z,25.20
2022-08-09T09:55:32.605Z,25.30
2022-08-09T09:58:18.800Z,25.30
2022-08-09T10:00:54.545Z,25.30
2022-08-09T10:03:40.851Z,25.30
2022-08-09T10:06:13.075Z,25.30
2022-08-09T10:08:43.186Z,25.30
2022-08-09T10:12:00.588Z,25.30
2022-08-09T10:14:30.375Z,25.30
2022-08-09T10:17:39.637Z,25.30
2022-08-09T10:20:00.200Z,25.40
2022-08-09T10:22:39.128Z,25.40
2022-08-09T10:25:12.060Z,25.40
2022-08-09T10:27:56.320Z,25.50
2022-08-09T10:32:07.146Z,25.50
2022-08-09T10:34:04.648Z,25.50
2022-08-09T10:36:04.837Z,25.50
2022-08-09T10:38:56.568Z,25.50
2022-08-09T10:41:22.647Z,25.50
2022-08-09T10:43:59.381Z,25.50
2022-08-09T10:48:12.312Z,25.50
2022-08-09T10:50:05.613Z,25.50
2022-08-09T10:53:04.530Z,25.50
2022-08-09T10:55:58.922Z,25.60
2022-08-09T10:58:34.981Z,25.60
2022-08-09T11:03:06.489Z,25.70
2022-08-09T11:04:28.264Z,25.70
2022-08-09T11:07:56.678Z,25.80
2022-08-09T11:10:38.855Z,25.80
2022-08-09T11:13:49.349Z,25.80
2022-08-09T11:16:35.067Z,25.80
2022-08-09T11:19:09.413Z,25.80
2022-08-09T11:22:05.218Z,25.80
2022-08-09T11:25:08.763Z,25.80
2022-08-09T11:28:04.706Z,25.80
2022-08-09T11:30:36.755Z,25.80
2022-08-09T11:33:12.882Z,25.80
2022-08-09T11:35:50.324Z,25.80
2022-08-09T11:38:32.237Z,25.90
2022-08-09T11:41:05.293Z,25.90
2022-08-09T11:43:42.849Z,25.90
2022-08-09T11:46:12.729Z,25.90
2022-08-09T11:48:58.085Z,25.90
2022-08-09T11:53:00.698Z,25.90
2022-08-09T11:54:17.806Z,25.90
2022-08-09T11:57:03.576Z,26.00
2022-08-09T11:59:35.905Z,26.00
2022-08-09T12:02:17.473Z,26.00
2022-08-09T12:04:58.067Z,26.00
2022-08-09T12:07:34.506Z,26.00
2022-08-09T12:10:32.002Z,26.00
2022-08-09T12:13:03.704Z,26.10
2022-08-09T12:15:52.148Z,26.10
2022-08-09T12:18:30.191Z,26.10
2022-08-09T12:21:00.545Z,26.10
2022-08-09T12:24:00.530Z,26.10
2022-08-09T12:26:26.044Z,26.10
2022-08-09T12:29:15.409Z,26.10
2022-08-09T12:32:01.717Z,26.10
2022-08-09T12:34:37.487Z,26.00
2022-08-09T12:37:22.155Z,26.10
2022-08-09T12:40:03.239Z,26.10
2022-08-09T12:42:34.297Z,26.10
2022-08-09T12:45:32.526Z,26.20
2022-08-09T12:47:52.961Z,26.20
2022-08-09T12:50:24.865Z,26.20
2022-08-09T12:53:09.249Z,26.20
2022-08-09T12:56:15.113Z,26.20
2022-08-09T12:58:29.937Z,26.20
2022-08-09T13:00:58.497Z,26.20
2022-08-09T13:03:53.074Z,26.20
2022-08-09T13:06:34.838Z,26.20
2022-08-09T13:09:14.708Z,26.20
2022-08-09T13:11:44.520Z,26.20
2022-08-09T13:14:40.808Z,26.20
2022-08-09T13:17:08.562Z,26.30
2022-08-09T13:20:09.095Z,26.30
2022-08-09T13:22:36.729Z,26.30
2022-08-09T13:25:16.883Z,26.30
2022-08-09T13:27:55.118Z,26.30
2022-08-09T13:30:50.692Z,26.40
2022-08-09T13:33:23.542Z,26.50
2022-08-09T13:36:24.638Z,26.50
2022-08-09T13:38:57.534Z,26.60
2022-08-09T13:41:59.247Z,26.60
2022-08-09T13:44:17.511Z,26.50
2022-08-09T13:47:27.063Z,26.50
2022-08-09T13:49:38.005Z,26.60
2022-08-09T13:52:24.606Z,26.60
2022-08-09T13:54:58.958Z,26.50
2022-08-09T13:57:37.132Z,26.50
2022-08-09T14:00:12.168Z,26.50
2022-08-09T14:03:03.248Z,26.50
2022-08-09T14:05:58.267Z,26.50
2022-08-09T14:08:19.181Z,26.60
2022-08-09T14:10:53.007Z,26.60
2022-08-09T14:14:15.097Z,26.60
2022-08-09T14:16:14.501Z,26.70
2022-08-09T14:18:46.044Z,26.80
2022-08-09T14:21:20.298Z,26.80
2022-08-09T14:23:54.156Z,26.90
2022-08-09T14:26:32.005Z,26.90
2022-08-09T14:29:03.147Z,27.00
2022-08-09T14:31:36.091Z,27.00
2022-08-09T14:34:31.873Z,27.00
2022-08-09T14:37:01.660Z,27.00
2022-08-09T14:39:47.212Z,27.00
2022-08-09T14:42:32.095Z,27.00
2022-08-09T14:46:57.171Z,27.00
2022-08-09T14:47:58.087Z,27.00
2022-08-09T14:50:32.480Z,27.00
2022-08-09T14:53:01.337Z,27.10
2022-08-09T14:55:32.605Z,27.00
2022-08-09T14:58:04.841Z,27.10
2022-08-09T15:00:36.393Z,27.10
2022-08-09T15:03:07.562Z,27.10
2022-08-09T15:05:38.405Z,27.20
2022-08-09T15:08:10.337Z,27.20
2022-08-09T15:10:39.432Z,27.20
2022-08-09T15:13:09.471Z,27.20
2022-08-09T15:15:38.908Z,27.20
2022-08-09T15:18:14.073Z,27.20
2022-08-09T15:21:57.108Z,27.20
2022-08-09T15:24:01.126Z,27.20
2022-08-09T15:26:31.706Z,27.10
2022-08-09T15:29:04.625Z,27.10
2022-08-09T15:31:41.945Z,27.10
2022-08-09T15:34:33.038Z,27.00
2022-08-09T15:37:03.819Z,27.00
2022-08-09T15:39:43.764Z,27.00
2022-08-09T15:42:21.818Z,27.00
2022-08-09T15:44:51.496Z,26.90
2022-08-09T15:47:21.775Z,26.90
2022-08-09T15:50:03.676Z,26.90
2022-08-09T15:52:33.471Z,26.90
2022-08-09T15:55:01.903Z,26.90
2022-08-09T15:57:34.351Z,26.90
2022-08-09T16:00:14.110Z,26.90
2022-08-09T16:02:53.601Z,26.90
2022-08-09T16:05:26.433Z,27.00
2022-08-09T16:07:54.553Z,27.00
2022-08-09T16:10:55.222Z,27.00
2022-08-09T16:13:21.166Z,27.00
2022-08-09T16:16:09.883Z,27.00
2022-08-09T16:18:45.276Z,27.00
2022-08-09T16:21:17.054Z,27.00
2022-08-09T16:23:55.789Z,27.00
2022-08-09T16:26:34.823Z,27.00
2022-08-09T16:29:11.520Z,27.00
2022-08-09T16:32:20.235Z,27.00
2022-08-09T16:34:54.872Z,27.00
2022-08-09T16:37:21.558Z,27.00
2022-08-09T16:40:10.631Z,27.00
2022-08-09T16:42:45.508Z,27.10
2022-08-09T16:45:14.976Z,27.10
2022-08-09T16:48:42.958Z,27.10
2022-08-09T16:50:38.602Z,27.20
2022-08-09T16:53:08.806Z,27.20
2022-08-09T16:55:57.924Z,27.20
2022-08-09T16:58:25.989Z,27.30
2022-08-09T17:00:54.979Z,27.30
2022-08-09T17:03:25.127Z,27.30
2022-08-09T17:06:08.439Z,27.30
2022-08-09T17:09:00.015Z,27.30
2022-08-09T17:11:41.721Z,27.40
2022-08-09T17:14:26.037Z,27.40
2022-08-09T17:17:00.076Z,27.40
2022-08-09T17:19:46.393Z,27.50
2022-08-09T17:22:15.910Z,27.80
2022-08-09T17:24:54.959Z,28.20
2022-08-09T17:27:24.088Z,28.70
2022-08-09T17:29:52.547Z,29.20
2022-08-09T17:32:26.692Z,29.80
2022-08-09T17:35:11.435Z,30.20
2022-08-09T17:38:07.646Z,30.80
2022-08-09T17:40:32.628Z,31.60
2022-08-09T17:43:10.597Z,32.60
2022-08-09T17:46:04.059Z,33.30
2022-08-09T17:48:29.309Z,33.30
2022-08-09T17:51:06.466Z,33.70
2022-08-09T17:53:43.526Z,33.90
2022-08-09T17:56:21.180Z,34.50
2022-08-09T17:58:49.377Z,34.60
2022-08-09T18:01:22.956Z,34.50
2022-08-09T18:03:52.712Z,34.90
2022-08-09T18:06:30.746Z,35.40
2022-08-09T18:09:03.368Z,34.80
2022-08-09T18:12:05.559Z,33.40
2022-08-09T18:14:22.613Z,32.20
2022-08-09T18:16:53.103Z,31.00
2022-08-09T18:20:56.440Z,30.10
2022-08-09T18:22:17.234Z,29.40
2022-08-09T18:24:46.616Z,28.70
2022-08-09T18:27:49.163Z,28.20
2022-08-09T18:30:42.019Z,27.70
2022-08-09T18:32:54.058Z,27.30
2022-08-09T18:35:58.631Z,27.00
2022-08-09T18:38:13.529Z,26.70
2022-08-09T18:40:42.986Z,26.40
2022-08-09T18:43:13.278Z,26.10
2022-08-09T18:46:47.135Z,25.90
2022-08-09T18:48:33.033Z,25.70
2022-08-09T18:51:01.638Z,25.40
2022-08-09T18:53:56.350Z,25.20
2022-08-09T18:56:27.022Z,25.00
2022-08-09T18:58:56.707Z,24.80
2022-08-09T19:01:25.609Z,24.70
2022-08-09T19:04:06.442Z,24.50
2022-08-09T19:06:38.712Z,24.40
2022-08-09T19:09:13.732Z,24.30
2022-08-09T19:11:49.174Z,24.20
2022-08-09T19:14:29.077Z,24.00
2022-08-09T19:16:57.837Z,24.00
2022-08-09T19:19:28.304Z,23.80
2022-08-09T19:22:07.747Z,23.80
2022-08-09T19:25:11.443Z,23.70
2022-08-09T19:27:28.656Z,23.60
2022-08-09T19:30:22.116Z,23.40
2022-08-09T19:32:45.799Z,23.40
2022-08-09T19:35:26.097Z,23.30
2022-08-09T19:37:57.544Z,23.20
2022-08-09T19:40:33.970Z,23.10
2022-08-09T19:43:05.273Z,23.00
2022-08-09T19:45:40.214Z,22.90
2022-08-09T19:48:11.886Z,22.70
2022-08-09T19:50:50.538Z,22.60
2022-08-09T19:53:20.732Z,22.70
2022-08-09T19:56:02.792Z,22.60
2022-08-09T19:58:35.790Z,22.50
2022-08-09T20:01:04.638Z,22.40
2022-08-09T20:04:18.747Z,22.30
2022-08-09T20:06:29.948Z,22.20
2022-08-09T20:08:59.792Z,22.10
2022-08-09T20:11:42.861Z,22.00
2022-08-09T20:14:17.206Z,21.90
2022-08-09T20:16:54.296Z,21.80
2022-08-09T20:19:47.440Z,21.70
2022-08-09T20:22:14.265Z,21.70
2022-08-09T20:24:53.361Z,21.50
2022-08-09T20:27:24.574Z,21.40
2022-08-09T20:29:58.873Z,21.40
2022-08-09T20:32:30.642Z,21.30
2022-08-09T20:35:02.794Z,21.30
2022-08-09T20:37:37.698Z,21.20
2022-08-09T20:40:27.108Z,21.10
2022-08-09T20:43:18.383Z,21.00
2022-08-09T20:45:58.482Z,21.00
2022-08-09T20:48:31.935Z,20.90
2022-08-09T20:51:01.207Z,20.80
2022-08-09T20:53:36.434Z,20.80
2022-08-09T20:56:20.927Z,20.70
2022-08-09T20:58:57.928Z,20.70
2022-08-09T21:01:35.246Z,20.70
2022-08-09T21:05:51.340Z,20.60
2022-08-09T21:07:11.942Z,20.60
2022-08-09T21:09:45.615Z,20.50
2022-08-09T21:15:15.016Z,20.40
2022-08-09T21:18:22.256Z,20.40
2022-08-09T21:20:35.469Z,20.30
2022-08-09T21:23:04.327Z,20.30
2022-08-09T21:25:56.381Z,20.30
2022-08-09T21:28:35.153Z,20.20
2022-08-09T21:31:13.520Z,20.10
2022-08-09T21:33:52.567Z,20.10
2022-08-09T21:36:23.417Z,20.10
2022-08-09T21:38:56.734Z,20.00
2022-08-09T21:42:04.117Z,19.90
2022-08-09T21:44:33.383Z,19.90
2022-08-09T21:47:05.879Z,19.80
2022-08-09T21:49:39.289Z,19.80
2022-08-09T21:52:16.970Z,19.80
2022-08-09T21:55:03.246Z,19.70
2022-08-09T21:57:39.142Z,19.70
2022-08-09T22:00:32.664Z,19.70
2022-08-09T22:03:05.753Z,19.60
2022-08-09T22:05:36.848Z,19.50
2022-08-09T22:08:13.926Z,19.50
2022-08-09T22:11:00.858Z,19.50
2022-08-09T22:13:35.462Z,19.50
2022-08-09T22:16:07.670Z,19.40
2022-08-09T22:18:38.383Z,19.40
2022-08-09T22:21:22.046Z,19.40
2022-08-09T22:24:01.495Z,19.30
2022-08-09T22:26:35.036Z,19.30
2022-08-09T22:29:10.014Z,19.30
2022-08-09T22:31:50.615Z,19.20
2022-08-09T22:34:26.876Z,19.20
2022-08-09T22:36:55.717Z,19.20
2022-08-09T22:39:57.709Z,19.10
2022-08-09T22:42:16.243Z,19.10
2022-08-09T22:48:05.001Z,19.10
2022-08-09T22:48:11.073Z,19.10
2022-08-09T22:50:30.808Z,19.00
2022-08-09T22:52:59.222Z,18.90
2022-08-09T22:55:39.687Z,18.90
2022-08-09T22:58:20.149Z,18.90
2022-08-09T23:00:59.654Z,18.90
2022-08-09T23:04:02.811Z,18.80
2022-08-09T23:06:32.621Z,18.80
2022-08-09T23:09:05.074Z,18.70
2022-08-09T23:11:33.352Z,18.70
2022-08-09T23:14:02.923Z,18.70
2022-08-09T23:16:31.235Z,18.70
2022-08-09T23:18:59.378Z,18.60
2022-08-09T23:21:33.604Z,18.60
2022-08-09T23:24:06.503Z,18.60
2022-08-09T23:26:35.624Z,18.50
2022-08-09T23:29:03.847Z,18.50
2022-08-09T23:31:31.899Z,18.50
2022-08-09T23:34:00.052Z,18.50
2022-08-09T23:36:29.516Z,18.40
2022-08-09T23:38:57.598Z,18.40
2022-08-09T23:41:28.750Z,18.40
2022-08-09T23:44:01.061Z,18.30
2022-08-09T23:46:30.450Z,18.30
2022-08-09T23:48:58.997Z,18.30
2022-08-09T23:51:29.494Z,18.20
2022-08-09T23:54:02.054Z,18.20
2022-08-09T23:56:52.145Z,18.20
2022-08-09T23:59:21.100Z,18.20
